sensor_id;sensor_type;location;lat;lon;timestamp;pressure;altitude;pressure_sealevel;temperature;humidity
38038;BME280;23843;51.320;12.340;2023-01-29T05:31:43;101491.16;;;-1.80;100.00
38038;BME280;23843;51.320;12.340;2023-01-29T05:34:09;101486.03;;;-1.75;100.00
38038;BME280;23843;51.320;12.340;2023-01-29T05:36:34;101486.09;;;-1.72;100.00
38038;BME280;23843;51.320;12.340;2023-01-29T05:39:00;101487.00;;;-1.67;100.00
38038;BME280;23843;51.320;12.340;2023-01-29T05:41:25;101480.16;;;-1.63;100.00
38038;BME280;23843;51.320;12.340;2023-01-29T05:43:50;101477.50;;;-1.66;100.00
38038;BME280;23843;51.320;12.340;2023-01-29T05:46:16;101475.75;;;-1.67;100.00
38038;BME280;23843;51.320;12.340;2023-01-29T05:48:43;101475.75;;;-1.66;100.00
38038;BME280;23843;51.320;12.340;2023-01-29T05:51:08;101470.63;;;-1.63;100.00
38038;BME280;23843;51.320;12.340;2023-01-29T05:53:33;101484.44;;;-1.65;100.00
38038;BME280;23843;51.320;12.340;2023-01-29T05:56:00;101489.59;;;-1.70;100.00
38038;BME280;23843;51.320;12.340;2023-01-29T05:58:25;101493.91;;;-1.69;100.00
38038;BME280;23843;51.320;12.340;2023-01-29T06:00:51;101487.91;;;-1.65;100.00
38038;BME280;23843;51.320;12.340;2023-01-29T06:03:16;101484.50;;;-1.62;100.00
38038;BME280;23843;51.320;12.340;2023-01-29T06:05:43;101490.59;;;-1.60;100.00
38038;BME280;23843;51.320;12.340;2023-01-29T06:08:08;101487.22;;;-1.53;100.00
38038;BME280;23843;51.320;12.340;2023-01-29T06:10:34;101486.34;;;-1.54;100.00
38038;BME280;23843;51.320;12.340;2023-01-29T06:12:59;101494.19;;;-1.51;100.00
38038;BME280;23843;51.320;12.340;2023-01-29T06:15:25;101492.44;;;-1.50;100.00
38038;BME280;23843;51.320;12.340;2023-01-29T06:17:52;101491.66;;;-1.44;100.00
38038;BME280;23843;51.320;12.340;2023-01-29T06:20:17;101496.88;;;-1.43;100.00
38038;BME280;23843;51.320;12.340;2023-01-29T06:22:44;101497.78;;;-1.41;100.00
38038;BME280;23843;51.320;12.340;2023-01-29T06:25:09;101503.88;;;-1.39;100.00
38038;BME280;23843;51.320;12.340;2023-01-29T06:27:35;101506.41;;;-1.42;100.00
38038;BME280;23843;51.320;12.340;2023-01-29T06:30:01;101501.28;;;-1.39;100.00
38038;BME280;23843;51.320;12.340;2023-01-29T06:32:26;101510.84;;;-1.36;100.00
38038;BME280;23843;51.320;12.340;2023-01-29T06:34:52;101521.19;;;-1.38;100.00
38038;BME280;23843;51.320;12.340;2023-01-29T06:37:17;101523.84;;;-1.35;100.00
38038;BME280;23843;51.320;12.340;2023-01-29T06:39:44;101523.94;;;-1.28;100.00
38038;BME280;23843;51.320;12.340;2023-01-29T06:42:09;101532.63;;;-1.25;100.00
38038;BME280;23843;51.320;12.340;2023-01-29T06:44:35;101535.25;;;-1.23;100.00
38038;BME280;23843;51.320;12.340;2023-01-29T06:47:00;101548.28;;;-1.20;100.00
38038;BME280;23843;51.320;12.340;2023-01-29T06:49:25;101546.63;;;-1.15;100.00
38038;BME280;23843;51.320;12.340;2023-01-29T06:51:51;101550.97;;;-1.16;100.00
38038;BME280;23843;51.320;12.340;2023-01-29T06:54:16;101551.88;;;-1.12;100.00
38038;BME280;23843;51.320;12.340;2023-01-29T06:56:43;101558.78;;;-1.14;100.00
38038;BME280;23843;51.320;12.340;2023-01-29T06:59:17;101564.94;;;-1.08;100.00
38038;BME280;23843;51.320;12.340;2023-01-29T07:01:42;101562.34;;;-1.06;100.00
38038;BME280;23843;51.320;12.340;2023-01-29T07:04:08;101563.19;;;-1.09;100.00
38038;BME280;23843;51.320;12.340;2023-01-29T07:06:34;101556.31;;;-1.03;100.00
38038;BME280;23843;51.320;12.340;2023-01-29T07:09:02;101560.69;;;-1.01;100.00
38038;BME280;23843;51.320;12.340;2023-01-29T07:11:28;101570.28;;;-0.95;100.00
38038;BME280;23843;51.320;12.340;2023-01-29T07:13:55;101575.47;;;-0.97;100.00
38038;BME280;23843;51.320;12.340;2023-01-29T07:16:20;101591.16;;;-0.91;100.00
38038;BME280;23843;51.320;12.340;2023-01-29T07:18:45;101591.13;;;-0.94;100.00
38038;BME280;23843;51.320;12.340;2023-01-29T07:21:11;101580.72;;;-0.94;100.00
38038;BME280;23843;51.320;12.340;2023-01-29T07:23:36;101574.66;;;-0.93;100.00
38038;BME280;23843;51.320;12.340;2023-01-29T07:26:03;101579.06;;;-0.87;100.00
38038;BME280;23843;51.320;12.340;2023-01-29T07:28:29;101575.50;;;-0.94;100.00
38038;BME280;23843;51.320;12.340;2023-01-29T07:30:56;101576.44;;;-0.90;100.00
38038;BME280;23843;51.320;12.340;2023-01-29T07:33:25;101585.16;;;-0.87;100.00
38038;BME280;23843;51.320;12.340;2023-01-29T07:35:50;101581.75;;;-0.82;100.00
38038;BME280;23843;51.320;12.340;2023-01-29T07:38:16;101588.78;;;-0.75;100.00
38038;BME280;23843;51.320;12.340;2023-01-29T07:40:41;101590.50;;;-0.74;100.00
38038;BME280;23843;51.320;12.340;2023-01-29T07:43:08;101579.28;;;-0.69;100.00
38038;BME280;23843;51.320;12.340;2023-01-29T07:45:36;101570.63;;;-0.68;100.00
38038;BME280;23843;51.320;12.340;2023-01-29T07:48:04;101578.50;;;-0.63;100.00
38038;BME280;23843;51.320;12.340;2023-01-29T07:50:31;101576.81;;;-0.58;100.00
38038;BME280;23843;51.320;12.340;2023-01-29T07:52:57;101570.81;;;-0.49;100.00
38038;BME280;23843;51.320;12.340;2023-01-29T07:55:23;101570.88;;;-0.45;100.00
38038;BME280;23843;51.320;12.340;2023-01-29T07:57:54;101554.47;;;-0.37;100.00
38038;BME280;23843;51.320;12.340;2023-01-29T08:00:20;101555.25;;;-0.45;100.00
38038;BME280;23843;51.320;12.340;2023-01-29T08:02:46;101555.38;;;-0.34;100.00
38038;BME280;23843;51.320;12.340;2023-01-29T08:05:12;101537.22;;;-0.26;100.00
38038;BME280;23843;51.320;12.340;2023-01-29T08:07:38;101523.34;;;-0.27;100.00
38038;BME280;23843;51.320;12.340;2023-01-29T08:10:04;101523.28;;;-0.31;100.00
38038;BME280;23843;51.320;12.340;2023-01-29T08:12:29;101519.81;;;-0.30;100.00
38038;BME280;23843;51.320;12.340;2023-01-29T08:14:55;101514.66;;;-0.26;100.00
38038;BME280;23843;51.320;12.340;2023-01-29T08:17:20;101514.69;;;-0.21;100.00
38038;BME280;23843;51.320;12.340;2023-01-29T08:19:46;101513.78;;;-0.25;100.00
38038;BME280;23843;51.320;12.340;2023-01-29T08:22:13;101506.84;;;-0.23;100.00
38038;BME280;23843;51.320;12.340;2023-01-29T08:24:38;101519.91;;;-0.21;100.00
38038;BME280;23843;51.320;12.340;2023-01-29T08:27:03;101526.97;;;-0.09;100.00
38038;BME280;23843;51.320;12.340;2023-01-29T08:29:29;101531.38;;;0.01;100.00
38038;BME280;23843;51.320;12.340;2023-01-29T08:31:54;101521.00;;;0.09;100.00
38038;BME280;23843;51.320;12.340;2023-01-29T08:34:20;101520.22;;;0.19;100.00
38038;BME280;23843;51.320;12.340;2023-01-29T08:36:45;101518.50;;;0.21;100.00
38038;BME280;23843;51.320;12.340;2023-01-29T08:39:12;101530.69;;;0.25;100.00
38038;BME280;23843;51.320;12.340;2023-01-29T08:41:37;101546.38;;;0.30;100.00
38038;BME280;23843;51.320;12.340;2023-01-29T08:44:03;101541.16;;;0.31;100.00
38038;BME280;23843;51.320;12.340;2023-01-29T08:46:29;101536.78;;;0.27;100.00
38038;BME280;23843;51.320;12.340;2023-01-29T08:48:54;101531.56;;;0.29;100.00
38038;BME280;23843;51.320;12.340;2023-01-29T08:51:20;101534.22;;;0.30;100.00
38038;BME280;23843;51.320;12.340;2023-01-29T08:53:46;101539.41;;;0.30;100.00
38038;BME280;23843;51.320;12.340;2023-01-29T08:56:12;101542.03;;;0.32;100.00
38038;BME280;23843;51.320;12.340;2023-01-29T08:58:38;101558.50;;;0.29;100.00
38038;BME280;23843;51.320;12.340;2023-01-29T09:01:08;101558.41;;;0.17;100.00
38038;BME280;23843;51.320;12.340;2023-01-29T09:03:33;101557.56;;;0.19;100.00
38038;BME280;23843;51.320;12.340;2023-01-29T09:05:59;101541.13;;;0.25;100.00
38038;BME280;23843;51.320;12.340;2023-01-29T09:08:24;101540.22;;;0.21;100.00
38038;BME280;23843;51.320;12.340;2023-01-29T09:10:50;101528.91;;;0.21;100.00
38038;BME280;23843;51.320;12.340;2023-01-29T09:13:16;101529.78;;;0.21;100.00
38038;BME280;23843;51.320;12.340;2023-01-29T09:15:42;101532.34;;;0.12;100.00
38038;BME280;23843;51.320;12.340;2023-01-29T09:18:07;101518.47;;;0.16;100.00
38038;BME280;23843;51.320;12.340;2023-01-29T09:20:33;101519.34;;;0.15;100.00
38038;BME280;23843;51.320;12.340;2023-01-29T09:23:03;101515.03;;;0.22;100.00
38038;BME280;23843;51.320;12.340;2023-01-29T09:25:28;101506.28;;;0.17;100.00
38038;BME280;23843;51.320;12.340;2023-01-29T09:27:54;101499.38;;;0.17;100.00
38038;BME280;23843;51.320;12.340;2023-01-29T09:30:21;101491.59;;;0.24;100.00
38038;BME280;23843;51.320;12.340;2023-01-29T09:32:46;101493.34;;;0.26;100.00
38038;BME280;23843;51.320;12.340;2023-01-29T09:35:12;101494.22;;;0.28;100.00
38038;BME280;23843;51.320;12.340;2023-01-29T09:37:37;101496.84;;;0.31;100.00
38038;BME280;23843;51.320;12.340;2023-01-29T09:40:03;101497.72;;;0.33;100.00
38038;BME280;23843;51.320;12.340;2023-01-29T09:42:35;101498.66;;;0.46;100.00
38038;BME280;23843;51.320;12.340;2023-01-29T09:45:05;101505.69;;;0.56;100.00
38038;BME280;23843;51.320;12.340;2023-01-29T09:47:36;101508.28;;;0.55;100.00
38038;BME280;23843;51.320;12.340;2023-01-29T09:50:05;101507.44;;;0.59;100.00
38038;BME280;23843;51.320;12.340;2023-01-29T09:52:33;101508.31;;;0.61;100.00
38038;BME280;23843;51.320;12.340;2023-01-29T09:55:04;101508.38;;;0.75;100.00
38038;BME280;23843;51.320;12.340;2023-01-29T09:57:40;101499.69;;;0.77;100.00
38038;BME280;23843;51.320;12.340;2023-01-29T10:00:14;101487.59;;;0.85;100.00
38038;BME280;23843;51.320;12.340;2023-01-29T10:02:58;101486.72;;;0.94;100.00
38038;BME280;23843;51.320;12.340;2023-01-29T10:05:43;101482.41;;;0.98;100.00
38038;BME280;23843;51.320;12.340;2023-01-29T10:08:28;101473.72;;;1.00;100.00
38038;BME280;23843;51.320;12.340;2023-01-29T10:11:04;101468.47;;;0.96;100.00
38038;BME280;23843;51.320;12.340;2023-01-29T10:13:39;101471.06;;;0.91;100.00
38038;BME280;23843;51.320;12.340;2023-01-29T10:16:19;101471.97;;;0.98;100.00
38038;BME280;23843;51.320;12.340;2023-01-29T10:19:33;101464.19;;;1.13;100.00
38038;BME280;23843;51.320;12.340;2023-01-29T10:22:15;101457.22;;;1.14;100.00
38038;BME280;23843;51.320;12.340;2023-01-29T10:24:50;101457.19;;;1.09;100.00
38038;BME280;23843;51.320;12.340;2023-01-29T10:27:18;101452.88;;;1.19;100.00
38038;BME280;23843;51.320;12.340;2023-01-29T10:29:46;101451.13;;;1.09;100.00
38038;BME280;23843;51.320;12.340;2023-01-29T10:32:15;101451.16;;;1.22;100.00
38038;BME280;23843;51.320;12.340;2023-01-29T10:34:45;101447.66;;;1.20;100.00
38038;BME280;23843;51.320;12.340;2023-01-29T10:37:16;101435.50;;;1.22;100.00
38038;BME280;23843;51.320;12.340;2023-01-29T10:39:51;101440.72;;;1.22;100.00
38038;BME280;23843;51.320;12.340;2023-01-29T10:42:22;101438.97;;;1.31;100.00
38038;BME280;23843;51.320;12.340;2023-01-29T10:44:57;101444.19;;;1.38;100.00
38038;BME280;23843;51.320;12.340;2023-01-29T10:47:43;101432.00;;;1.39;100.00
38038;BME280;23843;51.320;12.340;2023-01-29T10:50:20;101423.31;;;1.40;100.00
38038;BME280;23843;51.320;12.340;2023-01-29T10:53:13;101404.16;;;1.38;100.00
38038;BME280;23843;51.320;12.340;2023-01-29T10:55:47;101416.34;;;1.51;100.00
38038;BME280;23843;51.320;12.340;2023-01-29T10:58:24;101417.25;;;1.59;100.00
38038;BME280;23843;51.320;12.340;2023-01-29T11:00:53;101418.97;;;1.60;100.00
38038;BME280;23843;51.320;12.340;2023-01-29T11:03:22;101411.13;;;1.69;100.00
38038;BME280;23843;51.320;12.340;2023-01-29T11:05:54;101411.13;;;1.73;100.00
38038;BME280;23843;51.320;12.340;2023-01-29T11:08:24;101402.41;;;1.80;100.00
38038;BME280;23843;51.320;12.340;2023-01-29T11:10:55;101396.28;;;1.90;100.00
38038;BME280;23843;51.320;12.340;2023-01-29T11:13:30;101388.47;;;1.87;100.00
38038;BME280;23843;51.320;12.340;2023-01-29T11:15:56;101387.56;;;1.92;100.00
38038;BME280;23843;51.320;12.340;2023-01-29T11:18:22;101386.69;;;1.95;100.00
38038;BME280;23843;51.320;12.340;2023-01-29T11:21:00;101387.56;;;1.99;100.00
38038;BME280;23843;51.320;12.340;2023-01-29T11:23:28;101384.97;;;2.03;100.00
38038;BME280;23843;51.320;12.340;2023-01-29T11:25:55;101378.88;;;2.03;100.00
38038;BME280;23843;51.320;12.340;2023-01-29T11:28:37;101364.03;;;2.03;100.00
38038;BME280;23843;51.320;12.340;2023-01-29T11:31:14;101364.06;;;2.00;100.00
38038;BME280;23843;51.320;12.340;2023-01-29T11:33:40;101366.63;;;2.09;100.00
38038;BME280;23843;51.320;12.340;2023-01-29T11:36:20;101357.91;;;2.20;100.00
38038;BME280;23843;51.320;12.340;2023-01-29T11:38:46;101357.88;;;2.21;100.00
38038;BME280;23843;51.320;12.340;2023-01-29T11:41:15;101345.69;;;2.19;100.00
38038;BME280;23843;51.320;12.340;2023-01-29T11:43:41;101331.75;;;2.18;100.00
38038;BME280;23843;51.320;12.340;2023-01-29T11:46:12;101339.59;;;2.17;100.00
38038;BME280;23843;51.320;12.340;2023-01-29T11:48:40;101338.72;;;2.16;100.00
38038;BME280;23843;51.320;12.340;2023-01-29T11:51:09;101336.97;;;2.18;100.00
38038;BME280;23843;51.320;12.340;2023-01-29T11:53:39;101337.00;;;2.20;100.00
38038;BME280;23843;51.320;12.340;2023-01-29T11:56:19;101334.41;;;2.10;100.00
38038;BME280;23843;51.320;12.340;2023-01-29T11:58:47;101332.59;;;2.25;100.00
38038;BME280;23843;51.320;12.340;2023-01-29T12:01:16;101323.88;;;2.27;100.00
38038;BME280;23843;51.320;12.340;2023-01-29T12:03:45;101313.41;;;2.29;100.00
38038;BME280;23843;51.320;12.340;2023-01-29T12:06:17;101302.06;;;2.34;100.00
38038;BME280;23843;51.320;12.340;2023-01-29T12:08:52;101299.47;;;2.30;100.00
38038;BME280;23843;51.320;12.340;2023-01-29T12:11:24;101301.16;;;2.40;100.00
38038;BME280;23843;51.320;12.340;2023-01-29T12:13:53;101305.44;;;2.52;100.00
38038;BME280;23843;51.320;12.340;2023-01-29T12:16:23;101294.25;;;2.25;100.00
38038;BME280;23843;51.320;12.340;2023-01-29T12:18:53;101304.59;;;2.45;100.00
38038;BME280;23843;51.320;12.340;2023-01-29T12:21:25;101302.88;;;2.43;100.00
38038;BME280;23843;51.320;12.340;2023-01-29T12:23:58;101296.75;;;2.51;100.00
38038;BME280;23843;51.320;12.340;2023-01-29T12:26:30;101286.16;;;2.65;100.00
38038;BME280;23843;51.320;12.340;2023-01-29T12:29:11;101267.09;;;2.54;100.00
38038;BME280;23843;51.320;12.340;2023-01-29T12:31:41;101267.06;;;2.59;100.00
38038;BME280;23843;51.320;12.340;2023-01-29T12:34:13;101261.88;;;2.49;100.00
38038;BME280;23843;51.320;12.340;2023-01-29T12:36:42;101256.66;;;2.45;100.00
38038;BME280;23843;51.320;12.340;2023-01-29T12:39:15;101258.38;;;2.52;100.00
38038;BME280;23843;51.320;12.340;2023-01-29T12:41:44;101254.84;;;2.57;100.00
38038;BME280;23843;51.320;12.340;2023-01-29T12:44:14;101258.31;;;2.58;100.00
38038;BME280;23843;51.320;12.340;2023-01-29T12:46:44;101255.72;;;2.56;100.00
38038;BME280;23843;51.320;12.340;2023-01-29T12:49:15;101245.28;;;2.52;100.00
38038;BME280;23843;51.320;12.340;2023-01-29T12:51:50;101254.88;;;2.53;100.00
38038;BME280;23843;51.320;12.340;2023-01-29T12:54:22;101260.06;;;2.57;100.00
38038;BME280;23843;51.320;12.340;2023-01-29T12:56:56;101252.19;;;2.61;100.00
38038;BME280;23843;51.320;12.340;2023-01-29T12:59:30;101250.47;;;2.58;100.00
38038;BME280;23843;51.320;12.340;2023-01-29T13:02:00;101248.78;;;2.52;100.00
38038;BME280;23843;51.320;12.340;2023-01-29T13:04:35;101248.66;;;2.71;100.00
38038;BME280;23843;51.320;12.340;2023-01-29T13:07:09;101246.88;;;2.76;100.00
38038;BME280;23843;51.320;12.340;2023-01-29T13:09:41;101249.47;;;2.76;100.00
38038;BME280;23843;51.320;12.340;2023-01-29T13:12:11;101240.84;;;2.66;100.00
38038;BME280;23843;51.320;12.340;2023-01-29T13:14:43;101235.53;;;2.72;100.00
38038;BME280;23843;51.320;12.340;2023-01-29T13:17:14;101229.38;;;2.79;100.00
38038;BME280;23843;51.320;12.340;2023-01-29T13:19:43;101220.66;;;2.79;100.00
38038;BME280;23843;51.320;12.340;2023-01-29T13:22:16;101212.84;;;2.76;100.00
38038;BME280;23843;51.320;12.340;2023-01-29T13:24:45;101208.50;;;2.73;100.00
38038;BME280;23843;51.320;12.340;2023-01-29T13:27:22;101197.16;;;2.74;100.00
38038;BME280;23843;51.320;12.340;2023-01-29T13:29:48;101198.00;;;2.76;100.00
38038;BME280;23843;51.320;12.340;2023-01-29T13:32:19;101189.31;;;2.73;100.00
38038;BME280;23843;51.320;12.340;2023-01-29T13:34:47;101192.84;;;2.69;100.00
38038;BME280;23843;51.320;12.340;2023-01-29T13:37:18;101192.78;;;2.75;100.00
38038;BME280;23843;51.320;12.340;2023-01-29T13:39:49;101196.31;;;2.69;100.00
38038;BME280;23843;51.320;12.340;2023-01-29T13:42:18;101193.72;;;2.71;100.00
38038;BME280;23843;51.320;12.340;2023-01-29T13:44:47;101190.34;;;2.56;100.00
38038;BME280;23843;51.320;12.340;2023-01-29T13:47:21;101189.41;;;2.61;100.00
38038;BME280;23843;51.320;12.340;2023-01-29T13:49:53;101183.31;;;2.60;100.00
38038;BME280;23843;51.320;12.340;2023-01-29T13:52:25;101175.44;;;2.63;100.00
38038;BME280;23843;51.320;12.340;2023-01-29T13:54:57;101182.50;;;2.56;100.00
38038;BME280;23843;51.320;12.340;2023-01-29T13:57:50;101173.81;;;2.48;100.00
38038;BME280;23843;51.320;12.340;2023-01-29T14:00:47;101161.63;;;2.46;100.00
38038;BME280;23843;51.320;12.340;2023-01-29T14:03:38;101182.63;;;2.35;100.00
38038;BME280;23843;51.320;12.340;2023-01-29T14:06:05;101193.91;;;2.43;100.00
38038;BME280;23843;51.320;12.340;2023-01-29T14:08:42;101194.78;;;2.47;100.00
38038;BME280;23843;51.320;12.340;2023-01-29T14:11:33;101196.50;;;2.46;100.00
38038;BME280;23843;51.320;12.340;2023-01-29T14:13:59;101201.69;;;2.51;100.00
38038;BME280;23843;51.320;12.340;2023-01-29T14:16:33;101210.56;;;2.30;100.00
38038;BME280;23843;51.320;12.340;2023-01-29T14:19:00;101218.38;;;2.33;100.00
38038;BME280;23843;51.320;12.340;2023-01-29T14:21:29;101221.03;;;2.28;100.00
38038;BME280;23843;51.320;12.340;2023-01-29T14:23:56;101221.91;;;2.27;100.00
38038;BME280;23843;51.320;12.340;2023-01-29T14:26:27;101219.31;;;2.26;100.00
38038;BME280;23843;51.320;12.340;2023-01-29T14:29:04;101214.97;;;2.23;100.00
38038;BME280;23843;51.320;12.340;2023-01-29T14:31:41;101205.41;;;2.14;100.00
38038;BME280;23843;51.320;12.340;2023-01-29T14:34:16;101203.69;;;2.13;100.00
38038;BME280;23843;51.320;12.340;2023-01-29T14:36:46;101203.75;;;2.01;100.00
38038;BME280;23843;51.320;12.340;2023-01-29T14:39:30;101197.63;;;2.07;100.00
38038;BME280;23843;51.320;12.340;2023-01-29T14:41:57;101186.34;;;2.03;100.00
38038;BME280;23843;51.320;12.340;2023-01-29T14:47:54;101190.69;;;2.00;100.00
38038;BME280;23843;51.320;12.340;2023-01-29T14:53:44;101193.38;;;1.87;100.00
38038;BME280;23843;51.320;12.340;2023-01-29T14:56:14;101184.72;;;1.81;100.00
38038;BME280;23843;51.320;12.340;2023-01-29T14:58:43;101188.19;;;1.80;100.00
38038;BME280;23843;51.320;12.340;2023-01-29T15:01:16;101186.41;;;1.88;100.00
38038;BME280;23843;51.320;12.340;2023-01-29T15:03:45;101196.03;;;1.78;100.00
38038;BME280;23843;51.320;12.340;2023-01-29T15:06:16;101183.81;;;1.83;100.00
38038;BME280;23843;51.320;12.340;2023-01-29T15:08:46;101183.00;;;1.74;100.00
38038;BME280;23843;51.320;12.340;2023-01-29T15:11:20;101185.59;;;1.78;100.00
38038;BME280;23843;51.320;12.340;2023-01-29T15:13:51;101169.03;;;1.81;100.00
38038;BME280;23843;51.320;12.340;2023-01-29T15:16:21;101176.88;;;1.81;100.00
38038;BME280;23843;51.320;12.340;2023-01-29T15:18:52;101169.91;;;1.77;100.00
38038;BME280;23843;51.320;12.340;2023-01-29T15:21:19;101159.47;;;1.70;100.00
38038;BME280;23843;51.320;12.340;2023-01-29T15:23:45;101156.94;;;1.61;100.00
38038;BME280;23843;51.320;12.340;2023-01-29T15:26:12;101155.16;;;1.66;100.00
38038;BME280;23843;51.320;12.340;2023-01-29T15:28:41;101156.06;;;1.64;100.00
38038;BME280;23843;51.320;12.340;2023-01-29T15:31:11;101153.41;;;1.67;100.00
38038;BME280;23843;51.320;12.340;2023-01-29T15:33:40;101153.44;;;1.64;100.00
38038;BME280;23843;51.320;12.340;2023-01-29T15:36:17;101141.22;;;1.67;100.00
38038;BME280;23843;51.320;12.340;2023-01-29T15:38:43;101141.25;;;1.64;100.00
38038;BME280;23843;51.320;12.340;2023-01-29T15:43:42;101131.69;;;1.57;100.00
38038;BME280;23843;51.320;12.340;2023-01-29T15:46:11;101136.91;;;1.62;100.00
38038;BME280;23843;51.320;12.340;2023-01-29T15:48:41;101136.00;;;1.63;100.00
38038;BME280;23843;51.320;12.340;2023-01-29T15:51:15;101138.66;;;1.58;100.00
38038;BME280;23843;51.320;12.340;2023-01-29T15:53:43;101129.09;;;1.59;100.00
38038;BME280;23843;51.320;12.340;2023-01-29T15:56:14;101142.16;;;1.59;100.00
38038;BME280;23843;51.320;12.340;2023-01-29T15:58:45;101127.34;;;1.59;100.00
38038;BME280;23843;51.320;12.340;2023-01-29T16:01:12;101123.00;;;1.57;100.00
38038;BME280;23843;51.320;12.340;2023-01-29T16:03:38;101120.38;;;1.58;100.00
38038;BME280;23843;51.320;12.340;2023-01-29T16:06:04;101124.69;;;1.61;100.00
38038;BME280;23843;51.320;12.340;2023-01-29T16:08:33;101121.22;;;1.63;100.00
38038;BME280;23843;51.320;12.340;2023-01-29T16:11:01;101122.97;;;1.63;100.00
38038;BME280;23843;51.320;12.340;2023-01-29T16:13:28;101119.47;;;1.65;100.00
38038;BME280;23843;51.320;12.340;2023-01-29T16:15:56;101117.75;;;1.61;100.00
38038;BME280;23843;51.320;12.340;2023-01-29T16:18:24;101122.13;;;1.59;100.00
38038;BME280;23843;51.320;12.340;2023-01-29T16:20:54;101120.38;;;1.58;100.00
38038;BME280;23843;51.320;12.340;2023-01-29T16:23:22;101110.81;;;1.53;100.00
38038;BME280;23843;51.320;12.340;2023-01-29T16:25:50;101110.81;;;1.57;100.00
38038;BME280;23843;51.320;12.340;2023-01-29T16:28:16;101114.31;;;1.56;100.00
38038;BME280;23843;51.320;12.340;2023-01-29T16:30:43;101111.69;;;1.53;100.00
38038;BME280;23843;51.320;12.340;2023-01-29T16:33:12;101116.03;;;1.51;100.00
38038;BME280;23843;51.320;12.340;2023-01-29T16:35:39;101110.84;;;1.54;100.00
38038;BME280;23843;51.320;12.340;2023-01-29T16:38:18;101117.78;;;1.50;100.00
38038;BME280;23843;51.320;12.340;2023-01-29T16:41:05;101114.31;;;1.53;100.00
38038;BME280;23843;51.320;12.340;2023-01-29T16:43:55;101108.22;;;1.51;100.00
38038;BME280;23843;51.320;12.340;2023-01-29T16:46:25;101117.81;;;1.47;100.00
38038;BME280;23843;51.320;12.340;2023-01-29T16:48:51;101111.72;;;1.50;100.00
38038;BME280;23843;51.320;12.340;2023-01-29T16:51:23;101113.44;;;1.51;100.00
38038;BME280;23843;51.320;12.340;2023-01-29T16:53:58;101113.44;;;1.51;100.00
38038;BME280;23843;51.320;12.340;2023-01-29T16:56:29;101111.72;;;1.52;100.00
38038;BME280;23843;51.320;12.340;2023-01-29T16:58:57;101123.91;;;1.48;100.00
38038;BME280;23843;51.320;12.340;2023-01-29T17:01:25;101115.22;;;1.49;100.00
38038;BME280;23843;51.320;12.340;2023-01-29T17:03:57;101120.44;;;1.47;100.00
38038;BME280;23843;51.320;12.340;2023-01-29T17:06:25;101110.84;;;1.49;100.00
38038;BME280;23843;51.320;12.340;2023-01-29T17:08:51;101115.22;;;1.49;100.00
38038;BME280;23843;51.320;12.340;2023-01-29T17:11:23;101116.97;;;1.47;100.00
38038;BME280;23843;51.320;12.340;2023-01-29T17:13:54;101120.44;;;1.49;100.00
38038;BME280;23843;51.320;12.340;2023-01-29T17:16:22;101123.91;;;1.49;100.00
38038;BME280;23843;51.320;12.340;2023-01-29T17:18:49;101119.53;;;1.53;100.00
38038;BME280;23843;51.320;12.340;2023-01-29T17:21:15;101116.94;;;1.50;100.00
38038;BME280;23843;51.320;12.340;2023-01-29T17:23:40;101117.81;;;1.46;100.00
38038;BME280;23843;51.320;12.340;2023-01-29T17:26:11;101116.94;;;1.50;100.00
38038;BME280;23843;51.320;12.340;2023-01-29T17:28:37;101118.69;;;1.45;100.00
38038;BME280;23843;51.320;12.340;2023-01-29T17:31:05;101106.50;;;1.47;100.00
38038;BME280;23843;51.320;12.340;2023-01-29T17:33:30;101109.13;;;1.45;100.00
38038;BME280;23843;51.320;12.340;2023-01-29T17:35:56;101109.13;;;1.45;100.00
38038;BME280;23843;51.320;12.340;2023-01-29T17:41:05;101108.25;;;1.49;100.00
38038;BME280;23843;51.320;12.340;2023-01-29T17:43:33;101106.50;;;1.50;100.00
38038;BME280;23843;51.320;12.340;2023-01-29T17:45:58;101104.75;;;1.46;100.00
38038;BME280;23843;51.320;12.340;2023-01-29T17:48:27;101103.03;;;1.45;100.00
38038;BME280;23843;51.320;12.340;2023-01-29T17:50:55;101093.44;;;1.44;100.00
38038;BME280;23843;51.320;12.340;2023-01-29T17:53:21;101091.78;;;1.37;100.00
38038;BME280;23843;51.320;12.340;2023-01-29T17:55:47;101085.63;;;1.44;100.00
38038;BME280;23843;51.320;12.340;2023-01-29T17:58:15;101080.41;;;1.41;100.00
38038;BME280;23843;51.320;12.340;2023-01-29T18:00:41;101078.69;;;1.40;100.00
38038;BME280;23843;51.320;12.340;2023-01-29T18:03:07;101070.00;;;1.38;100.00
38038;BME280;23843;51.320;12.340;2023-01-29T18:05:34;101070.03;;;1.30;100.00
38038;BME280;23843;51.320;12.340;2023-01-29T18:08:00;101068.31;;;1.27;100.00
38038;BME280;23843;51.320;12.340;2023-01-29T18:10:26;101050.88;;;1.31;100.00
38038;BME280;23843;51.320;12.340;2023-01-29T18:12:51;101046.53;;;1.33;100.00
38038;BME280;23843;51.320;12.340;2023-01-29T18:15:17;101040.47;;;1.22;100.00
38038;BME280;23843;51.320;12.340;2023-01-29T18:17:42;101033.53;;;1.22;100.00
38038;BME280;23843;51.320;12.340;2023-01-29T18:20:17;101033.53;;;1.21;100.00
38038;BME280;23843;51.320;12.340;2023-01-29T18:22:44;101027.47;;;1.16;100.00
38038;BME280;23843;51.320;12.340;2023-01-29T18:25:12;101026.59;;;1.18;100.00
38038;BME280;23843;51.320;12.340;2023-01-29T18:27:39;101016.22;;;1.03;100.00
38038;BME280;23843;51.320;12.340;2023-01-29T18:30:06;101019.69;;;1.02;100.00
38038;BME280;23843;51.320;12.340;2023-01-29T18:32:34;101011.00;;;1.06;100.00